Time,TemperatureF,DewpointF,PressureIn,WindDirection,WindDirectionDegrees,WindSpeedMPH,WindSpeedGustMPH,Humidity,HourlyPrecipIn,Conditions,Clouds,dailyrainin,SoftwareType,DateUTC
2013-01-31 00:00:00,35.9,34.4,29.30,SW,231,18.0,20.0,94,0.01,,OVC OVC///CB,0.00,WUHU216DAVISVP2,2013-01-31 05:00:00,
2013-01-31 00:01:00,35.9,34.4,29.30,West,278,9.0,20.0,94,0.01,,OVC OVC///CB,0.00,WUHU216DAVISVP2,2013-01-31 05:01:00,
2013-01-31 00:06:00,35.4,33.9,29.31,West,276,11.0,24.0,94,0.01,,OVC OVC///CB,0.00,WUHU216DAVISVP2,2013-01-31 05:06:00,
2013-01-31 00:11:00,35.0,33.8,29.31,WSW,243,12.0,24.0,95,0.01,,OVC OVC///CB,0.00,WUHU216DAVISVP2,2013-01-31 05:11:00,
2013-01-31 00:16:00,34.7,33.5,29.32,WNW,293,5.0,24.0,95,0.01,,OVC OVC///CB,0.00,WUHU216DAVISVP2,2013-01-31 05:16:00,
2013-01-31 00:21:00,34.0,33.0,29.32,WNW,283,8.0,17.0,96,0.02,,OVC OVC///CB,0.01,WUHU216DAVISVP2,2013-01-31 05:21:00,
2013-01-31 00:26:00,33.0,32.3,29.33,SW,235,18.0,25.0,97,0.02,,OVC OVC///CB,0.01,WUHU216DAVISVP2,2013-01-31 05:26:00,
2013-01-31 00:31:00,32.5,31.8,29.33,WNW,285,10.0,25.0,97,0.02,,OVC OVC///CB,0.01,WUHU216DAVISVP2,2013-01-31 05:31:00,
2013-01-31 00:36:00,32.3,31.9,29.33,West,276,19.0,25.0,98,0.01,,OVC OVC///CB,0.01,WUHU216DAVISVP2,2013-01-31 05:36:00,
2013-01-31 00:41:00,32.4,31.7,29.33,WSW,250,2.0,26.0,97,0.01,,OVC OVC///CB,0.01,WUHU216DAVISVP2,2013-01-31 05:41:00,
2013-01-31 00:46:00,32.5,31.8,29.32,SW,226,8.0,26.0,97,0.01,,OVC OVC///CB,0.01,WUHU216DAVISVP2,2013-01-31 05:46:00,
2013-01-31 00:51:00,32.7,32.0,29.33,SW,235,8.0,26.0,97,0.01,,OVC OVC///CB,0.01,WUHU216DAVISVP2,2013-01-31 05:51:00,
2013-01-31 00:56:00,32.8,31.9,29.33,WSW,242,8.0,26.0,96,0.01,,OVC OVC///CB,0.01,WUHU216DAVISVP2,2013-01-31 05:56:00,
2013-01-31 01:01:00,32.9,32.0,29.34,WSW,248,10.0,21.0,96,0.01,,OVC OVC///CB,0.01,WUHU216DAVISVP2,2013-01-31 06:01:00,
2013-01-31 01:06:00,32.9,32.0,29.34,West,280,4.0,20.0,96,0.01,,OVC OVC///CB,0.01,WUHU216DAVISVP2,2013-01-31 06:06:00,
2013-01-31 01:11:00,32.9,32.0,29.34,West,281,4.0,20.0,96,0.01,,OVC OVC///CB,0.01,WUHU216DAVISVP2,2013-01-31 06:11:00,
2013-01-31 01:16:00,33.0,31.8,29.34,SW,232,3.0,18.0,95,0.00,,OVC OVC///CB,0.01,WUHU216DAVISVP2,2013-01-31 06:16:00,
2013-01-31 01:21:00,33.0,31.5,29.34,West,270,7.0,16.0,94,0.00,,OVC OVC///CB,0.01,WUHU216DAVISVP2,2013-01-31 06:21:00,
2013-01-31 01:26:00,33.0,31.5,29.34,WSW,255,11.0,16.0,94,0.00,,OVC OVC///CB,0.01,WUHU216DAVISVP2,2013-01-31 06:26:00,
2013-01-31 01:31:00,33.1,31.6,29.34,WSW,255,4.0,12.0,94,0.00,,OVC OVC///CB,0.01,WUHU216DAVISVP2,2013-01-31 06:31:00,
2013-01-31 01:36:00,33.2,31.7,29.35,WNW,291,10.0,13.0,94,0.00,,OVC OVC///CB,0.01,WUHU216DAVISVP2,2013-01-31 06:36:00,
2013-01-31 01:41:00,33.0,31.5,29.36,WNW,293,5.0,24.0,94,0.00,,OVC OVC///CB,0.01,WUHU216DAVISVP2,2013-01-31 06:41:00,
2013-01-31 01:46:00,32.9,31.4,29.37,West,259,14.0,24.0,94,0.00,,OVC OVC///CB,0.01,WUHU216DAVISVP2,2013-01-31 06:46:00,
2013-01-31 01:51:00,32.8,30.8,29.37,WNW,299,4.0,24.0,92,0.00,,OVC OVC///CB,0.01,WUHU216DAVISVP2,2013-01-31 06:51:00,
2013-01-31 01:56:00,32.8,30.8,29.37,West,269,10.0,24.0,92,0.00,,OVC OVC///CB,0.01,WUHU216DAVISVP2,2013-01-31 06:56:00,
2013-01-31 02:01:00,32.7,29.6,29.38,NW,312,10.0,19.0,88,0.00,,OVC OVC///CB,0.01,WUHU216DAVISVP2,2013-01-31 07:01:00,
2013-01-31 02:06:00,32.8,29.7,29.39,WNW,300,21.0,21.0,88,0.00,,OVC OVC///CB,0.01,WUHU216DAVISVP2,2013-01-31 07:06:00,
2013-01-31 02:11:00,32.8,29.2,29.39,NW,316,13.0,22.0,86,0.00,,OVC OVC///CB,0.01,WUHU216DAVISVP2,2013-01-31 07:11:00,
2013-01-31 02:16:00,32.7,28.8,29.40,WSW,256,5.0,22.0,85,0.00,,OVC OVC///CB,0.01,WUHU216DAVISVP2,2013-01-31 07:16:00,
2013-01-31 02:21:00,32.5,28.0,29.40,West,270,9.0,23.0,83,0.00,,OVC OVC///CB,0.01,WUHU216DAVISVP2,2013-01-31 07:21:00,
2013-01-31 02:27:00,32.4,27.0,29.42,West,281,16.0,27.0,80,0.00,,OVC OVC///CB,0.01,WUHU216DAVISVP2,2013-01-31 07:27:00,
2013-01-31 02:32:00,32.2,26.9,29.41,WNW,288,12.0,27.0,80,0.00,,OVC OVC///CB,0.01,WUHU216DAVISVP2,2013-01-31 07:32:00,
2013-01-31 02:37:00,32.1,26.5,29.42,West,273,6.0,27.0,79,0.00,,OVC OVC///CB,0.01,WUHU216DAVISVP2,2013-01-31 07:37:00,
2013-01-31 02:42:00,32.0,26.1,29.42,WNW,291,14.0,27.0,78,0.00,,OVC OVC///CB,0.01,WUHU216DAVISVP2,2013-01-31 07:42:00,
2013-01-31 02:47:00,31.8,25.6,29.42,WSW,257,9.0,27.0,77,0.00,,OVC OVC///CB,0.01,WUHU216DAVISVP2,2013-01-31 07:47:00,
2013-01-31 02:52:00,31.8,25.9,29.42,WNW,283,6.0,27.0,78,0.00,,OVC OVC///CB,0.01,WUHU216DAVISVP2,2013-01-31 07:52:00,
2013-01-31 02:57:00,31.7,25.5,29.43,WSW,258,8.0,27.0,77,0.00,,OVC OVC///CB,0.01,WUHU216DAVISVP2,2013-01-31 07:57:00,
2013-01-31 03:02:00,31.6,25.1,29.43,WNW,289,11.0,24.0,76,0.00,,OVC OVC///CB,0.01,WUHU216DAVISVP2,2013-01-31 08:02:00,
2013-01-31 03:07:00,31.5,24.7,29.43,NW,305,9.0,27.0,75,0.00,,OVC OVC///CB,0.01,WUHU216DAVISVP2,2013-01-31 08:07:00,
2013-01-31 03:12:00,31.4,24.9,29.43,WNW,293,9.0,27.0,76,0.00,,OVC OVC///CB,0.01,WUHU216DAVISVP2,2013-01-31 08:12:00,
2013-01-31 03:17:00,31.3,24.1,29.43,WNW,291,7.0,27.0,74,0.00,,OVC OVC///CB,0.01,WUHU216DAVISVP2,2013-01-31 08:17:00,
2013-01-31 03:22:00,31.3,24.5,29.43,SW,228,7.0,24.0,75,0.00,,OVC OVC///CB,0.01,WUHU216DAVISVP2,2013-01-31 08:22:00,
2013-01-31 03:27:00,31.2,24.4,29.44,WNW,297,14.0,24.0,75,0.00,,OVC OVC///CB,0.01,WUHU216DAVISVP2,2013-01-31 08:27:00,
2013-01-31 03:32:00,31.2,24.4,29.44,WNW,290,8.0,20.0,75,0.00,,OVC OVC///CB,0.01,WUHU216DAVISVP2,2013-01-31 08:32:00,
2013-01-31 03:37:00,31.1,24.3,29.44,WNW,291,7.0,21.0,75,0.00,,OVC OVC///CB,0.01,WUHU216DAVISVP2,2013-01-31 08:37:00,
2013-01-31 03:42:00,31.1,24.3,29.44,WNW,297,8.0,21.0,75,0.00,,OVC OVC///CB,0.01,WUHU216DAVISVP2,2013-01-31 08:42:00,
2013-01-31 03:47:00,31.0,24.8,29.44,WNW,297,7.0,21.0,77,0.00,,OVC OVC///CB,0.01,WUHU216DAVISVP2,2013-01-31 08:47:00,
2013-01-31 03:52:00,31.0,24.8,29.44,West,281,13.0,21.0,77,0.00,,OVC OVC///CB,0.01,WUHU216DAVISVP2,2013-01-31 08:52:00,
2013-01-31 03:57:00,31.0,24.8,29.44,WNW,283,9.0,21.0,77,0.00,,OVC OVC///CB,0.01,WUHU216DAVISVP2,2013-01-31 08:57:00,
2013-01-31 04:02:00,30.9,25.0,29.45,WSW,252,4.0,21.0,78,0.00,,OVC OVC///CB,0.01,WUHU216DAVISVP2,2013-01-31 09:02:00,
2013-01-31 04:07:00,30.9,25.3,29.45,West,281,6.0,21.0,79,0.00,,OVC OVC///CB,0.01,WUHU216DAVISVP2,2013-01-31 09:07:00,
2013-01-31 04:12:00,30.9,25.3,29.45,WSW,248,2.0,21.0,79,0.00,,OVC OVC///CB,0.01,WUHU216DAVISVP2,2013-01-31 09:12:00,
2013-01-31 04:17:00,30.9,25.6,29.45,West,278,9.0,15.0,80,0.00,,OVC OVC///CB,0.01,WUHU216DAVISVP2,2013-01-31 09:17:00,
2013-01-31 04:22:00,30.3,26.7,29.46,West,269,10.0,27.0,86,0.00,,OVC OVC///CB,0.01,WUHU216DAVISVP2,2013-01-31 09:22:00,
2013-01-31 04:27:00,29.4,26.4,29.47,SSW,205,7.0,28.0,88,0.00,,OVC OVC///CB,0.01,WUHU216DAVISVP2,2013-01-31 09:27:00,
2013-01-31 04:32:00,29.2,26.2,29.47,WSW,240,4.0,28.0,88,0.00,,OVC OVC///CB,0.01,WUHU216DAVISVP2,2013-01-31 09:32:00,
2013-01-31 04:37:00,28.6,26.6,29.48,West,274,5.0,28.0,92,0.00,,OVC OVC///CB,0.01,WUHU216DAVISVP2,2013-01-31 09:37:00,
2013-01-31 04:42:00,28.2,26.5,29.48,WSW,245,6.0,24.0,93,0.00,,OVC OVC///CB,0.01,WUHU216DAVISVP2,2013-01-31 09:42:00,
2013-01-31 04:47:00,28.5,26.3,29.48,SW,224,5.0,24.0,91,0.00,,OVC OVC///CB,0.01,WUHU216DAVISVP2,2013-01-31 09:47:00,
2013-01-31 04:52:00,28.8,26.3,29.48,WSW,252,7.0,24.0,90,0.00,,OVC OVC///CB,0.01,WUHU216DAVISVP2,2013-01-31 09:52:00,
2013-01-31 04:57:00,29.0,25.7,29.48,West,278,6.0,24.0,87,0.00,,OVC OVC///CB,0.01,WUHU216DAVISVP2,2013-01-31 09:57:00,
2013-01-31 05:02:00,29.0,25.1,29.49,SW,236,16.0,25.0,85,0.00,,OVC OVC///CB,0.01,WUHU216DAVISVP2,2013-01-31 10:02:00,
2013-01-31 05:07:00,28.9,25.0,29.49,NW,311,7.0,29.0,85,0.00,,OVC OVC///CB,0.01,WUHU216DAVISVP2,2013-01-31 10:07:00,
2013-01-31 05:12:00,29.0,24.0,29.49,SW,235,4.0,29.0,81,0.00,,OVC OVC///CB,0.01,WUHU216DAVISVP2,2013-01-31 10:12:00,
2013-01-31 05:17:00,29.2,23.6,29.50,West,266,10.0,29.0,79,0.00,,OVC OVC///CB,0.01,WUHU216DAVISVP2,2013-01-31 10:17:00,
2013-01-31 05:22:00,29.0,24.0,29.50,WSW,249,20.0,22.0,81,0.00,,OVC OVC///CB,0.01,WUHU216DAVISVP2,2013-01-31 10:22:00,
2013-01-31 05:27:00,28.6,24.5,29.51,WSW,245,15.0,24.0,84,0.00,,OVC OVC///CB,0.01,WUHU216DAVISVP2,2013-01-31 10:27:00,
2013-01-31 05:32:00,28.4,24.3,29.51,WSW,240,9.0,24.0,84,0.00,,OVC OVC///CB,0.01,WUHU216DAVISVP2,2013-01-31 10:32:00,
2013-01-31 05:37:00,28.4,24.3,29.52,WSW,252,16.0,24.0,84,0.00,,OVC OVC///CB,0.01,WUHU216DAVISVP2,2013-01-31 10:37:00,
2013-01-31 05:42:00,28.3,24.2,29.52,WNW,295,5.0,24.0,84,0.00,,OVC OVC///CB,0.01,WUHU216DAVISVP2,2013-01-31 10:42:00,
2013-01-31 05:47:00,28.1,24.3,29.53,West,273,13.0,26.0,85,0.00,,OVC OVC///CB,0.01,WUHU216DAVISVP2,2013-01-31 10:47:00,
2013-01-31 05:52:00,28.0,23.9,29.53,WSW,257,7.0,26.0,84,0.00,,OVC OVC///CB,0.01,WUHU216DAVISVP2,2013-01-31 10:52:00,
2013-01-31 05:57:00,27.8,23.7,29.53,WNW,295,8.0,26.0,84,0.00,,OVC OVC///CB,0.01,WUHU216DAVISVP2,2013-01-31 10:57:00,
2013-01-31 06:02:00,27.7,23.6,29.53,SSW,208,4.0,26.0,84,0.00,,OVC OVC///CB,0.01,WUHU216DAVISVP2,2013-01-31 11:02:00,
2013-01-31 06:07:00,27.5,23.4,29.54,West,270,12.0,29.0,84,0.00,,OVC OVC///CB,0.01,WUHU216DAVISVP2,2013-01-31 11:07:00,
2013-01-31 06:12:00,27.3,23.2,29.54,SW,226,3.0,29.0,84,0.00,,OVC OVC///CB,0.01,WUHU216DAVISVP2,2013-01-31 11:12:00,
2013-01-31 06:17:00,27.2,22.8,29.55,WSW,238,13.0,29.0,83,0.00,,OVC OVC///CB,0.01,WUHU216DAVISVP2,2013-01-31 11:17:00,
2013-01-31 06:22:00,27.1,22.4,29.55,SW,231,12.0,29.0,82,0.00,,OVC OVC///CB,0.01,WUHU216DAVISVP2,2013-01-31 11:22:00,
2013-01-31 06:27:00,27.0,22.3,29.56,WSW,242,14.0,25.0,82,0.00,,OVC OVC///CB,0.01,WUHU216DAVISVP2,2013-01-31 11:27:00,
2013-01-31 06:32:00,26.9,22.2,29.56,SW,228,10.0,25.0,82,0.00,,OVC OVC///CB,0.01,WUHU216DAVISVP2,2013-01-31 11:32:00,
2013-01-31 06:37:00,26.7,21.8,29.57,West,281,15.0,25.0,81,0.00,,OVC OVC///CB,0.01,WUHU216DAVISVP2,2013-01-31 11:37:00,
2013-01-31 06:42:00,26.4,21.5,29.57,SW,226,13.0,25.0,81,0.00,,OVC OVC///CB,0.01,WUHU216DAVISVP2,2013-01-31 11:42:00,
2013-01-31 06:47:00,26.2,21.6,29.57,WSW,245,16.0,25.0,82,0.00,,OVC OVC///CB,0.01,WUHU216DAVISVP2,2013-01-31 11:47:00,
2013-01-31 06:52:00,25.8,21.2,29.58,WSW,257,8.0,25.0,82,0.00,,OVC OVC///CB,0.01,WUHU216DAVISVP2,2013-01-31 11:52:00,
2013-01-31 06:57:00,25.4,20.8,29.58,SW,215,8.0,27.0,82,0.00,,OVC OVC///CB,0.01,WUHU216DAVISVP2,2013-01-31 11:57:00,
2013-01-31 07:02:00,25.3,20.7,29.59,NW,309,14.0,27.0,82,0.00,,OVC OVC///CB,0.01,WUHU216DAVISVP2,2013-01-31 12:02:00,
2013-01-31 07:07:00,25.3,19.8,29.59,West,277,16.0,26.0,79,0.00,,OVC OVC///CB,0.01,WUHU216DAVISVP2,2013-01-31 12:07:00,
2013-01-31 07:12:00,25.3,19.2,29.59,West,281,9.0,28.0,77,0.00,,OVC OVC///CB,0.01,WUHU216DAVISVP2,2013-01-31 12:12:00,
2013-01-31 07:17:00,25.2,19.1,29.60,West,264,20.0,28.0,77,0.00,,OVC OVC///CB,0.01,WUHU216DAVISVP2,2013-01-31 12:17:00,
2013-01-31 07:22:00,25.0,18.9,29.60,WNW,301,9.0,27.0,77,0.00,,OVC OVC///CB,0.01,WUHU216DAVISVP2,2013-01-31 12:22:00,
2013-01-31 07:27:00,24.8,19.0,29.61,WNW,283,9.0,27.0,78,0.00,,OVC OVC///CB,0.01,WUHU216DAVISVP2,2013-01-31 12:27:00,
2013-01-31 07:32:00,24.6,19.1,29.62,WSW,239,16.0,27.0,79,0.00,,OVC OVC///CB,0.01,WUHU216DAVISVP2,2013-01-31 12:32:00,
2013-01-31 07:37:00,24.1,19.5,29.62,West,265,3.0,27.0,82,0.00,,OVC OVC///CB,0.01,WUHU216DAVISVP2,2013-01-31 12:37:00,
2013-01-31 07:43:00,24.1,19.2,29.62,West,269,9.0,27.0,81,0.00,,OVC OVC///CB,0.01,WUHU216DAVISVP2,2013-01-31 12:43:00,
2013-01-31 07:48:00,24.2,19.0,29.62,WSW,242,9.0,27.0,80,0.00,,OVC OVC///CB,0.01,WUHU216DAVISVP2,2013-01-31 12:48:00,
2013-01-31 07:53:00,24.2,18.5,29.63,West,275,8.0,18.0,78,0.00,,OVC OVC///CB,0.01,WUHU216DAVISVP2,2013-01-31 12:53:00,
2013-01-31 07:58:00,24.2,18.2,29.63,West,280,7.0,18.0,77,0.00,,OVC OVC///CB,0.01,WUHU216DAVISVP2,2013-01-31 12:58:00,
2013-01-31 08:03:00,24.1,18.4,29.64,WSW,249,21.0,21.0,78,0.00,,OVC OVC///CB,0.01,WUHU216DAVISVP2,2013-01-31 13:03:00,
2013-01-31 08:08:00,24.0,18.6,29.64,West,267,9.0,21.0,79,0.00,,OVC OVC///CB,0.01,WUHU216DAVISVP2,2013-01-31 13:08:00,
2013-01-31 08:13:00,23.8,18.1,29.65,SW,218,16.0,21.0,78,0.00,,OVC OVC///CB,0.01,WUHU216DAVISVP2,2013-01-31 13:13:00,
2013-01-31 08:18:00,23.8,18.1,29.65,WNW,283,8.0,21.0,78,0.00,,OVC OVC///CB,0.01,WUHU216DAVISVP2,2013-01-31 13:18:00,
2013-01-31 08:23:00,23.7,17.4,29.65,East,83,12.0,21.0,76,0.00,,OVC OVC///CB,0.01,WUHU216DAVISVP2,2013-01-31 13:23:00,
2013-01-31 08:28:00,23.8,17.2,29.66,WSW,249,14.0,21.0,75,0.00,,OVC OVC///CB,0.01,WUHU216DAVISVP2,2013-01-31 13:28:00,
2013-01-31 08:33:00,23.7,17.4,29.66,WSW,252,7.0,27.0,76,0.00,,OVC OVC///CB,0.01,WUHU216DAVISVP2,2013-01-31 13:33:00,
2013-01-31 08:38:00,23.4,17.1,29.66,West,274,4.0,27.0,76,0.00,,OVC OVC///CB,0.01,WUHU216DAVISVP2,2013-01-31 13:38:00,
2013-01-31 08:43:00,23.4,16.8,29.66,West,278,24.0,26.0,75,0.00,,OVC OVC///CB,0.01,WUHU216DAVISVP2,2013-01-31 13:43:00,
2013-01-31 08:48:00,23.4,16.5,29.66,WNW,283,15.0,26.0,74,0.00,,OVC OVC///CB,0.01,WUHU216DAVISVP2,2013-01-31 13:48:00,
2013-01-31 08:53:00,23.4,17.1,29.67,West,267,4.0,25.0,76,0.00,,OVC OVC///CB,0.01,WUHU216DAVISVP2,2013-01-31 13:53:00,
2013-01-31 08:58:00,23.4,17.7,29.67,NW,304,7.0,25.0,78,0.00,,OVC OVC///CB,0.01,WUHU216DAVISVP2,2013-01-31 13:58:00,
2013-01-31 09:03:00,23.4,17.7,29.67,WSW,248,11.0,25.0,78,0.00,,OVC OVC///CB,0.01,WUHU216DAVISVP2,2013-01-31 14:03:00,
2013-01-31 09:08:00,23.4,17.4,29.68,West,263,7.0,19.0,77,0.00,,OVC OVC///CB,0.01,WUHU216DAVISVP2,2013-01-31 14:08:00,
2013-01-31 09:13:00,23.3,17.3,29.68,West,262,8.0,19.0,77,0.00,,OVC OVC///CB,0.01,WUHU216DAVISVP2,2013-01-31 14:13:00,
2013-01-31 09:18:00,23.3,17.3,29.68,SW,232,13.0,19.0,77,0.00,,OVC OVC///CB,0.01,WUHU216DAVISVP2,2013-01-31 14:18:00,
2013-01-31 09:23:00,23.2,18.1,29.69,West,274,7.0,23.0,80,0.00,,OVC OVC///CB,0.01,WUHU216DAVISVP2,2013-01-31 14:23:00,
2013-01-31 09:28:00,22.9,17.8,29.69,West,259,14.0,23.0,80,0.00,,OVC OVC///CB,0.01,WUHU216DAVISVP2,2013-01-31 14:28:00,
2013-01-31 09:33:00,22.9,18.6,29.69,WNW,286,8.0,22.0,83,0.00,,OVC OVC///CB,0.01,WUHU216DAVISVP2,2013-01-31 14:33:00,
2013-01-31 09:38:00,22.5,19.3,29.69,SSE,165,6.0,21.0,87,0.00,,OVC OVC///CB,0.01,WUHU216DAVISVP2,2013-01-31 14:38:00,
2013-01-31 09:43:00,22.4,19.2,29.70,WSW,246,8.0,20.0,87,0.00,,OVC OVC///CB,0.01,WUHU216DAVISVP2,2013-01-31 14:43:00,
2013-01-31 09:48:00,22.4,19.7,29.70,WNW,293,5.0,20.0,89,0.00,,OVC OVC///CB,0.01,WUHU216DAVISVP2,2013-01-31 14:48:00,
2013-01-31 09:53:00,22.3,19.6,29.70,West,269,11.0,18.0,89,0.00,,OVC OVC///CB,0.01,WUHU216DAVISVP2,2013-01-31 14:53:00,
2013-01-31 09:58:00,22.4,19.7,29.70,West,278,5.0,17.0,89,0.00,,OVC OVC///CB,0.01,WUHU216DAVISVP2,2013-01-31 14:58:00,
2013-01-31 10:03:00,22.5,19.5,29.70,SW,226,2.0,16.0,88,0.00,,OVC OVC///CB,0.01,WUHU216DAVISVP2,2013-01-31 15:03:00,
2013-01-31 10:08:00,22.7,19.2,29.70,WSW,243,9.0,16.0,86,0.00,,OVC OVC///CB,0.01,WUHU216DAVISVP2,2013-01-31 15:08:00,
2013-01-31 10:13:00,22.8,19.0,29.70,WNW,285,7.0,16.0,85,0.00,,OVC OVC///CB,0.01,WUHU216DAVISVP2,2013-01-31 15:13:00,
2013-01-31 10:18:00,22.9,19.1,29.70,WSW,243,5.0,18.0,85,0.00,,OVC OVC///CB,0.01,WUHU216DAVISVP2,2013-01-31 15:18:00,
2013-01-31 10:23:00,23.0,19.0,29.70,WNW,291,6.0,18.0,84,0.00,,OVC OVC///CB,0.01,WUHU216DAVISVP2,2013-01-31 15:23:00,
2013-01-31 10:28:00,23.2,19.2,29.71,West,278,7.0,18.0,84,0.00,,OVC OVC///CB,0.01,WUHU216DAVISVP2,2013-01-31 15:28:00,
2013-01-31 10:33:00,23.3,19.3,29.71,SW,235,6.0,22.0,84,0.00,,OVC OVC///CB,0.01,WUHU216DAVISVP2,2013-01-31 15:33:00,
2013-01-31 10:38:00,23.4,19.4,29.71,WSW,240,15.0,22.0,84,0.00,,OVC OVC///CB,0.01,WUHU216DAVISVP2,2013-01-31 15:38:00,
2013-01-31 10:43:00,23.4,19.4,29.71,SW,226,4.0,22.0,84,0.00,,OVC OVC///CB,0.01,WUHU216DAVISVP2,2013-01-31 15:43:00,
2013-01-31 10:48:00,23.4,19.6,29.71,WSW,239,2.0,18.0,85,0.00,,OVC OVC///CB,0.01,WUHU216DAVISVP2,2013-01-31 15:48:00,
2013-01-31 10:53:00,23.6,19.8,29.71,WSW,243,7.0,15.0,85,0.00,,OVC OVC///CB,0.01,WUHU216DAVISVP2,2013-01-31 15:53:00,
2013-01-31 10:58:00,23.4,19.9,29.71,SW,224,10.0,17.0,86,0.00,,OVC OVC///CB,0.01,WUHU216DAVISVP2,2013-01-31 15:58:00,
2013-01-31 11:03:00,23.3,20.1,29.72,WSW,250,11.0,17.0,87,0.00,,OVC OVC///CB,0.01,WUHU216DAVISVP2,2013-01-31 16:03:00,
2013-01-31 11:08:00,23.2,20.2,29.72,WSW,240,11.0,18.0,88,0.00,,OVC OVC///CB,0.01,WUHU216DAVISVP2,2013-01-31 16:08:00,
2013-01-31 11:13:00,22.7,19.7,29.73,WSW,257,14.0,31.0,88,0.00,,OVC OVC///CB,0.01,WUHU216DAVISVP2,2013-01-31 16:13:00,
2013-01-31 11:18:00,22.7,18.7,29.73,SW,232,11.0,31.0,84,0.00,,OVC OVC///CB,0.01,WUHU216DAVISVP2,2013-01-31 16:18:00,
2013-01-31 11:23:00,22.4,18.7,29.74,WSW,258,8.0,31.0,85,0.00,,OVC OVC///CB,0.01,WUHU216DAVISVP2,2013-01-31 16:23:00,
2013-01-31 11:28:00,21.7,18.2,29.75,WNW,291,7.0,31.0,86,0.00,,OVC OVC///CB,0.01,WUHU216DAVISVP2,2013-01-31 16:28:00,
2013-01-31 11:33:00,21.4,18.2,29.74,WNW,288,12.0,24.0,87,0.00,,OVC OVC///CB,0.01,WUHU216DAVISVP2,2013-01-31 16:33:00,
2013-01-31 11:38:00,21.5,17.0,29.75,WNW,286,14.0,24.0,82,0.00,,OVC OVC///CB,0.01,WUHU216DAVISVP2,2013-01-31 16:38:00,
2013-01-31 11:43:00,21.3,14.8,29.75,WSW,257,15.0,28.0,75,0.00,,OVC OVC///CB,0.01,WUHU216DAVISVP2,2013-01-31 16:43:00,
2013-01-31 11:48:00,21.5,14.3,29.76,West,269,12.0,29.0,73,0.00,,OVC OVC///CB,0.01,WUHU216DAVISVP2,2013-01-31 16:48:00,
2013-01-31 11:53:00,21.5,14.3,29.76,NW,313,9.0,29.0,73,0.00,,OVC OVC///CB,0.01,WUHU216DAVISVP2,2013-01-31 16:53:00,
2013-01-31 11:58:00,21.4,13.9,29.76,West,259,5.0,29.0,72,0.00,,OVC OVC///CB,0.01,WUHU216DAVISVP2,2013-01-31 16:58:00,
2013-01-31 12:03:00,21.4,14.3,29.76,WNW,285,3.0,27.0,73,0.00,,OVC OVC///CB,0.01,WUHU216DAVISVP2,2013-01-31 17:03:00,
2013-01-31 12:08:00,21.6,15.1,29.76,WNW,301,5.0,27.0,75,0.00,,OVC OVC///CB,0.01,WUHU216DAVISVP2,2013-01-31 17:08:00,
2013-01-31 12:13:00,21.6,15.1,29.76,WNW,300,10.0,22.0,75,0.00,,OVC OVC///CB,0.01,WUHU216DAVISVP2,2013-01-31 17:13:00,
2013-01-31 12:18:00,21.6,15.1,29.76,West,270,12.0,20.0,75,0.00,,OVC OVC///CB,0.01,WUHU216DAVISVP2,2013-01-31 17:18:00,
2013-01-31 12:23:00,21.3,15.3,29.76,West,276,11.0,20.0,77,0.00,,OVC OVC///CB,0.01,WUHU216DAVISVP2,2013-01-31 17:23:00,
2013-01-31 12:28:00,21.4,16.0,29.76,West,262,11.0,20.0,79,0.00,,OVC OVC///CB,0.01,WUHU216DAVISVP2,2013-01-31 17:28:00,
2013-01-31 12:33:00,21.3,16.2,29.76,WSW,242,9.0,20.0,80,0.00,,OVC OVC///CB,0.01,WUHU216DAVISVP2,2013-01-31 17:33:00,
2013-01-31 12:38:00,21.3,16.2,29.76,WNW,297,8.0,18.0,80,0.00,,OVC OVC///CB,0.01,WUHU216DAVISVP2,2013-01-31 17:38:00,
2013-01-31 12:43:00,21.3,17.0,29.77,NW,312,6.0,17.0,83,0.00,,OVC OVC///CB,0.01,WUHU216DAVISVP2,2013-01-31 17:43:00,
2013-01-31 12:49:00,21.1,17.6,29.77,West,273,7.0,17.0,86,0.00,,OVC OVC///CB,0.01,WUHU216DAVISVP2,2013-01-31 17:49:00,
2013-01-31 12:54:00,21.2,17.2,29.76,WNW,287,12.0,17.0,84,0.00,,OVC OVC///CB,0.01,WUHU216DAVISVP2,2013-01-31 17:54:00,
2013-01-31 12:59:00,21.5,16.4,29.77,WNW,295,9.0,24.0,80,0.00,,OVC OVC///CB,0.01,WUHU216DAVISVP2,2013-01-31 17:59:00,
2013-01-31 13:04:00,21.8,16.1,29.77,WSW,244,13.0,24.0,78,0.00,,OVC OVC///CB,0.01,WUHU216DAVISVP2,2013-01-31 18:04:00,
2013-01-31 13:09:00,21.9,15.6,29.77,WSW,256,8.0,23.0,76,0.00,,OVC OVC///CB,0.01,WUHU216DAVISVP2,2013-01-31 18:09:00,
2013-01-31 13:14:00,21.7,15.7,29.77,SW,231,10.0,26.0,77,0.00,,OVC OVC///CB,0.01,WUHU216DAVISVP2,2013-01-31 18:14:00,
2013-01-31 13:19:00,21.5,16.4,29.78,West,266,5.0,26.0,80,0.00,,OVC OVC///CB,0.01,WUHU216DAVISVP2,2013-01-31 18:19:00,
2013-01-31 13:24:00,21.7,16.6,29.77,West,275,13.0,26.0,80,0.00,,OVC OVC///CB,0.01,WUHU216DAVISVP2,2013-01-31 18:24:00,
2013-01-31 13:29:00,21.8,16.4,29.77,West,265,9.0,26.0,79,0.00,,OVC OVC///CB,0.01,WUHU216DAVISVP2,2013-01-31 18:29:00,
2013-01-31 13:34:00,21.7,16.3,29.77,WSW,252,18.0,20.0,79,0.00,,OVC OVC///CB,0.01,WUHU216DAVISVP2,2013-01-31 18:34:00,
2013-01-31 13:39:00,21.7,17.4,29.78,WSW,242,18.0,23.0,83,0.00,,OVC OVC///CB,0.01,WUHU216DAVISVP2,2013-01-31 18:39:00,
2013-01-31 13:44:00,21.5,17.8,29.78,SW,229,15.0,23.0,85,0.00,,OVC OVC///CB,0.01,WUHU216DAVISVP2,2013-01-31 18:44:00,
2013-01-31 13:49:00,21.6,17.3,29.78,WNW,297,6.0,22.0,83,0.00,,OVC OVC///CB,0.01,WUHU216DAVISVP2,2013-01-31 18:49:00,
2013-01-31 13:54:00,21.8,17.8,29.78,WSW,239,3.0,22.0,84,0.00,,OVC OVC///CB,0.01,WUHU216DAVISVP2,2013-01-31 18:54:00,
2013-01-31 13:59:00,21.9,17.3,29.78,West,268,12.0,20.0,82,0.00,,OVC OVC///CB,0.01,WUHU216DAVISVP2,2013-01-31 18:59:00,
2013-01-31 14:04:00,21.8,17.2,29.78,West,260,10.0,20.0,82,0.00,,OVC OVC///CB,0.01,WUHU216DAVISVP2,2013-01-31 19:04:00,
2013-01-31 14:09:00,21.8,17.8,29.79,WNW,295,10.0,22.0,84,0.00,,OVC OVC///CB,0.01,WUHU216DAVISVP2,2013-01-31 19:09:00,
2013-01-31 14:14:00,21.7,17.4,29.79,West,269,14.0,22.0,83,0.00,,OVC OVC///CB,0.01,WUHU216DAVISVP2,2013-01-31 19:14:00,
2013-01-31 14:19:00,21.5,17.5,29.79,WSW,257,13.0,21.0,84,0.00,,OVC OVC///CB,0.01,WUHU216DAVISVP2,2013-01-31 19:19:00,
2013-01-31 14:24:00,21.7,17.4,29.79,WSW,244,10.0,21.0,83,0.00,,OVC OVC///CB,0.01,WUHU216DAVISVP2,2013-01-31 19:24:00,
2013-01-31 14:29:00,21.9,16.8,29.79,WSW,245,6.0,22.0,80,0.00,,OVC OVC///CB,0.01,WUHU216DAVISVP2,2013-01-31 19:29:00,
2013-01-31 14:34:00,22.1,17.0,29.79,WSW,255,13.0,22.0,80,0.00,,OVC OVC///CB,0.01,WUHU216DAVISVP2,2013-01-31 19:34:00,
2013-01-31 14:39:00,22.1,17.0,29.79,WSW,258,16.0,22.0,80,0.00,,OVC OVC///CB,0.01,WUHU216DAVISVP2,2013-01-31 19:39:00,
2013-01-31 14:44:00,22.1,17.0,29.80,West,273,18.0,23.0,80,0.00,,OVC OVC///CB,0.01,WUHU216DAVISVP2,2013-01-31 19:44:00,
2013-01-31 14:49:00,22.1,17.3,29.80,NW,322,8.0,23.0,81,0.00,,OVC OVC///CB,0.01,WUHU216DAVISVP2,2013-01-31 19:49:00,
2013-01-31 14:54:00,22.2,17.6,29.80,SW,235,10.0,22.0,82,0.00,,OVC OVC///CB,0.01,WUHU216DAVISVP2,2013-01-31 19:54:00,
2013-01-31 14:59:00,22.4,17.8,29.80,WNW,283,5.0,22.0,82,0.00,,OVC OVC///CB,0.01,WUHU216DAVISVP2,2013-01-31 19:59:00,
2013-01-31 15:04:00,22.4,17.3,29.80,West,274,5.0,16.0,80,0.00,,OVC OVC///CB,0.01,WUHU216DAVISVP2,2013-01-31 20:04:00,
2013-01-31 15:09:00,22.6,17.5,29.80,West,280,3.0,16.0,80,0.00,,OVC OVC///CB,0.01,WUHU216DAVISVP2,2013-01-31 20:09:00,
2013-01-31 15:14:00,22.8,17.4,29.80,WNW,283,4.0,16.0,79,0.00,,OVC OVC///CB,0.01,WUHU216DAVISVP2,2013-01-31 20:14:00,
2013-01-31 15:19:00,22.8,17.7,29.80,WSW,248,9.0,16.0,80,0.00,,OVC OVC///CB,0.01,WUHU216DAVISVP2,2013-01-31 20:19:00,
2013-01-31 15:24:00,22.8,18.0,29.80,West,274,10.0,18.0,81,0.00,,OVC OVC///CB,0.01,WUHU216DAVISVP2,2013-01-31 20:24:00,
2013-01-31 15:29:00,22.7,18.7,29.80,WSW,255,7.0,18.0,84,0.00,,OVC OVC///CB,0.01,WUHU216DAVISVP2,2013-01-31 20:29:00,
2013-01-31 15:34:00,22.5,18.8,29.80,WNW,287,6.0,17.0,85,0.00,,OVC OVC///CB,0.01,WUHU216DAVISVP2,2013-01-31 20:34:00,
2013-01-31 15:39:00,22.6,19.1,29.81,WNW,283,6.0,17.0,86,0.00,,OVC OVC///CB,0.01,WUHU216DAVISVP2,2013-01-31 20:39:00,
2013-01-31 15:44:00,22.9,19.1,29.81,West,278,3.0,17.0,85,0.00,,OVC OVC///CB,0.01,WUHU216DAVISVP2,2013-01-31 20:44:00,
2013-01-31 15:49:00,23.4,19.4,29.81,WSW,245,10.0,17.0,84,0.00,,OVC OVC///CB,0.01,WUHU216DAVISVP2,2013-01-31 20:49:00,
2013-01-31 15:54:00,23.5,18.6,29.80,West,281,6.0,17.0,81,0.00,,OVC OVC///CB,0.01,WUHU216DAVISVP2,2013-01-31 20:54:00,
2013-01-31 15:59:00,23.7,18.8,29.80,WSW,242,2.0,16.0,81,0.00,,OVC OVC///CB,0.01,WUHU216DAVISVP2,2013-01-31 20:59:00,
2013-01-31 16:04:00,23.9,19.0,29.80,WSW,253,5.0,16.0,81,0.00,,OVC OVC///CB,0.01,WUHU216DAVISVP2,2013-01-31 21:04:00,
2013-01-31 16:09:00,24.0,19.1,29.80,WSW,249,6.0,16.0,81,0.00,,OVC OVC///CB,0.01,WUHU216DAVISVP2,2013-01-31 21:09:00,
2013-01-31 16:14:00,23.9,18.7,29.80,West,278,4.0,14.0,80,0.00,,OVC OVC///CB,0.01,WUHU216DAVISVP2,2013-01-31 21:14:00,
2013-01-31 16:19:00,23.9,19.0,29.80,West,259,5.0,14.0,81,0.00,,OVC OVC///CB,0.01,WUHU216DAVISVP2,2013-01-31 21:19:00,
2013-01-31 16:24:00,24.0,18.8,29.80,WSW,240,4.0,13.0,80,0.00,,OVC OVC///CB,0.01,WUHU216DAVISVP2,2013-01-31 21:24:00,
2013-01-31 16:29:00,24.2,18.8,29.80,WNW,285,3.0,11.0,79,0.00,,OVC OVC///CB,0.01,WUHU216DAVISVP2,2013-01-31 21:29:00,
2013-01-31 16:34:00,24.4,19.2,29.81,West,263,8.0,16.0,80,0.00,,OVC OVC///CB,0.01,WUHU216DAVISVP2,2013-01-31 21:34:00,
2013-01-31 16:39:00,24.1,20.3,29.81,WSW,258,12.0,16.0,85,0.00,,OVC OVC///CB,0.01,WUHU216DAVISVP2,2013-01-31 21:39:00,
2013-01-31 16:44:00,23.4,21.0,29.82,SW,226,5.0,20.0,90,0.00,,OVC OVC///CB,0.01,WUHU216DAVISVP2,2013-01-31 21:44:00,
2013-01-31 16:49:00,23.1,20.9,29.81,WSW,243,3.0,20.0,91,0.00,,OVC OVC///CB,0.01,WUHU216DAVISVP2,2013-01-31 21:49:00,
2013-01-31 16:54:00,23.1,20.9,29.81,WSW,245,8.0,19.0,91,0.00,,OVC OVC///CB,0.01,WUHU216DAVISVP2,2013-01-31 21:54:00,
2013-01-31 16:59:00,23.3,20.6,29.81,WSW,240,10.0,19.0,89,0.00,,OVC OVC///CB,0.01,WUHU216DAVISVP2,2013-01-31 21:59:00,
2013-01-31 17:04:00,23.4,20.7,29.81,West,266,7.0,20.0,89,0.00,,OVC OVC///CB,0.01,WUHU216DAVISVP2,2013-01-31 22:04:00,
2013-01-31 17:09:00,23.5,20.5,29.81,West,264,7.0,20.0,88,0.00,,OVC OVC///CB,0.01,WUHU216DAVISVP2,2013-01-31 22:09:00,
2013-01-31 17:14:00,23.6,20.6,29.82,WNW,283,8.0,19.0,88,0.00,,OVC OVC///CB,0.01,WUHU216DAVISVP2,2013-01-31 22:14:00,
2013-01-31 17:19:00,22.7,21.0,29.82,WNW,291,8.0,19.0,93,0.00,,OVC OVC///CB,0.01,WUHU216DAVISVP2,2013-01-31 22:19:00,
2013-01-31 17:24:00,22.4,21.2,29.83,WSW,254,4.0,19.0,95,0.00,,OVC OVC///CB,0.01,WUHU216DAVISVP2,2013-01-31 22:24:00,
2013-01-31 17:29:00,22.3,21.1,29.82,WSW,257,9.0,19.0,95,0.00,,OVC OVC///CB,0.01,WUHU216DAVISVP2,2013-01-31 22:29:00,
2013-01-31 17:34:00,22.2,20.8,29.82,WSW,240,5.0,19.0,94,0.00,,OVC OVC///CB,0.01,WUHU216DAVISVP2,2013-01-31 22:34:00,
2013-01-31 17:39:00,22.2,20.5,29.82,WSW,248,3.0,19.0,93,0.00,,OVC OVC///CB,0.01,WUHU216DAVISVP2,2013-01-31 22:39:00,
2013-01-31 17:44:00,22.4,20.0,29.82,West,264,4.0,18.0,90,0.00,,OVC OVC///CB,0.01,WUHU216DAVISVP2,2013-01-31 22:44:00,
2013-01-31 17:49:00,22.5,19.3,29.82,SW,232,4.0,14.0,87,0.00,,OVC OVC///CB,0.01,WUHU216DAVISVP2,2013-01-31 22:49:00,
2013-01-31 17:54:00,22.8,18.5,29.82,West,263,4.0,14.0,83,0.00,,OVC OVC///CB,0.01,WUHU216DAVISVP2,2013-01-31 22:54:00,
2013-01-31 17:59:00,22.9,18.0,29.82,West,263,12.0,19.0,81,0.00,,OVC OVC///CB,0.01,WUHU216DAVISVP2,2013-01-31 22:59:00,
2013-01-31 18:04:00,23.0,17.9,29.82,West,264,4.0,19.0,80,0.00,,OVC OVC///CB,0.01,WUHU216DAVISVP2,2013-01-31 23:04:00,
2013-01-31 18:09:00,23.2,17.8,29.83,WSW,239,4.0,21.0,79,0.00,,OVC OVC///CB,0.01,WUHU216DAVISVP2,2013-01-31 23:09:00,
2013-01-31 18:14:00,23.1,17.4,29.83,WSW,250,6.0,21.0,78,0.00,,OVC OVC///CB,0.01,WUHU216DAVISVP2,2013-01-31 23:14:00,
2013-01-31 18:19:00,23.2,17.5,29.83,WSW,242,6.0,21.0,78,0.00,,OVC OVC///CB,0.01,WUHU216DAVISVP2,2013-01-31 23:19:00,
2013-01-31 18:24:00,23.2,17.5,29.83,WSW,246,3.0,17.0,78,0.00,,OVC OVC///CB,0.01,WUHU216DAVISVP2,2013-01-31 23:24:00,
2013-01-31 18:29:00,23.3,17.6,29.83,West,259,7.0,18.0,78,0.00,,OVC OVC///CB,0.01,WUHU216DAVISVP2,2013-01-31 23:29:00,
2013-01-31 18:34:00,23.4,18.0,29.84,West,265,10.0,18.0,79,0.00,,OVC OVC///CB,0.01,WUHU216DAVISVP2,2013-01-31 23:34:00,
2013-01-31 18:39:00,23.2,18.3,29.83,WSW,257,8.0,18.0,81,0.00,,OVC OVC///CB,0.01,WUHU216DAVISVP2,2013-01-31 23:39:00,
2013-01-31 18:44:00,23.0,18.7,29.84,WNW,288,6.0,18.0,83,0.00,,OVC OVC///CB,0.01,WUHU216DAVISVP2,2013-01-31 23:44:00,
2013-01-31 18:49:00,22.8,18.8,29.84,West,274,3.0,18.0,84,0.00,,OVC OVC///CB,0.01,WUHU216DAVISVP2,2013-01-31 23:49:00,
2013-01-31 18:54:00,22.6,18.8,29.84,West,274,6.0,16.0,85,0.00,,OVC OVC///CB,0.01,WUHU216DAVISVP2,2013-01-31 23:54:00,
2013-01-31 18:59:00,22.6,18.6,29.84,WSW,240,3.0,17.0,84,0.00,,OVC OVC///CB,0.01,WUHU216DAVISVP2,2013-01-31 23:59:00,
2013-01-31 19:04:00,22.5,18.5,29.84,WSW,242,3.0,17.0,84,0.00,,OVC OVC///CB,0.01,WUHU216DAVISVP2,2013-02-01 00:04:00,
2013-01-31 19:09:00,22.6,18.6,29.85,WNW,284,7.0,16.0,84,0.00,,OVC OVC///CB,0.01,WUHU216DAVISVP2,2013-02-01 00:09:00,
2013-01-31 19:14:00,22.5,18.2,29.85,WNW,288,8.0,14.0,83,0.00,,OVC OVC///CB,0.01,WUHU216DAVISVP2,2013-02-01 00:14:00,
2013-01-31 19:19:00,22.5,18.2,29.85,West,274,8.0,15.0,83,0.00,,OVC OVC///CB,0.01,WUHU216DAVISVP2,2013-02-01 00:19:00,
2013-01-31 19:24:00,22.6,18.3,29.85,West,269,2.0,15.0,83,0.00,,OVC OVC///CB,0.01,WUHU216DAVISVP2,2013-02-01 00:24:00,
2013-01-31 19:29:00,22.5,18.2,29.85,WNW,285,4.0,15.0,83,0.00,,OVC OVC///CB,0.01,WUHU216DAVISVP2,2013-02-01 00:29:00,
2013-01-31 19:34:00,22.5,18.2,29.86,West,260,3.0,15.0,83,0.00,,OVC OVC///CB,0.01,WUHU216DAVISVP2,2013-02-01 00:34:00,
2013-01-31 19:39:00,22.5,18.2,29.86,WSW,246,2.0,11.0,83,0.00,,OVC OVC///CB,0.01,WUHU216DAVISVP2,2013-02-01 00:39:00,
2013-01-31 19:44:00,22.6,18.0,29.86,WSW,248,3.0,11.0,82,0.00,,OVC OVC///CB,0.01,WUHU216DAVISVP2,2013-02-01 00:44:00,
2013-01-31 19:49:00,22.7,18.1,29.86,West,278,2.0,13.0,82,0.00,,OVC OVC///CB,0.01,WUHU216DAVISVP2,2013-02-01 00:49:00,
2013-01-31 19:54:00,22.7,17.9,29.86,WSW,242,6.0,16.0,81,0.00,,OVC OVC///CB,0.01,WUHU216DAVISVP2,2013-02-01 00:54:00,
2013-01-31 20:00:00,22.8,17.7,29.86,West,276,4.0,16.0,80,0.00,,OVC OVC///CB,0.01,WUHU216DAVISVP2,2013-02-01 01:00:00,
2013-01-31 20:04:00,22.8,17.4,29.87,SW,231,3.0,16.0,79,0.00,,OVC OVC///CB,0.01,WUHU216DAVISVP2,2013-02-01 01:04:00,
2013-01-31 20:09:00,22.9,17.2,29.87,WSW,245,7.0,16.0,78,0.00,,OVC OVC///CB,0.01,WUHU216DAVISVP2,2013-02-01 01:09:00,
2013-01-31 20:14:00,23.0,17.3,29.87,WNW,298,6.0,16.0,78,0.00,,OVC OVC///CB,0.01,WUHU216DAVISVP2,2013-02-01 01:14:00,
2013-01-31 20:19:00,23.0,17.3,29.87,West,274,7.0,16.0,78,0.00,,OVC OVC///CB,0.01,WUHU216DAVISVP2,2013-02-01 01:19:00,
2013-01-31 20:24:00,23.0,17.0,29.87,WNW,295,5.0,16.0,77,0.00,,OVC OVC///CB,0.01,WUHU216DAVISVP2,2013-02-01 01:24:00,
2013-01-31 20:29:00,23.0,17.3,29.88,WSW,252,3.0,16.0,78,0.00,,OVC OVC///CB,0.01,WUHU216DAVISVP2,2013-02-01 01:29:00,
2013-01-31 20:35:00,23.0,17.3,29.88,WSW,253,7.0,14.0,78,0.00,,OVC OVC///CB,0.01,WUHU216DAVISVP2,2013-02-01 01:35:00,
2013-01-31 20:39:00,23.0,17.0,29.87,WSW,252,14.0,14.0,77,0.00,,OVC OVC///CB,0.01,WUHU216DAVISVP2,2013-02-01 01:39:00,
2013-01-31 20:45:00,22.9,17.2,29.88,WNW,293,4.0,14.0,78,0.00,,OVC OVC///CB,0.01,WUHU216DAVISVP2,2013-02-01 01:45:00,
2013-01-31 20:49:00,22.9,17.2,29.88,West,277,8.0,14.0,78,0.00,,OVC OVC///CB,0.01,WUHU216DAVISVP2,2013-02-01 01:49:00,
2013-01-31 20:54:00,22.9,16.9,29.88,WSW,252,7.0,13.0,77,0.00,,OVC OVC///CB,0.01,WUHU216DAVISVP2,2013-02-01 01:54:00,
2013-01-31 20:59:00,22.8,16.5,29.88,WNW,295,8.0,16.0,76,0.00,,OVC OVC///CB,0.01,WUHU216DAVISVP2,2013-02-01 01:59:00,
2013-01-31 21:04:00,22.8,15.6,29.88,West,268,13.0,18.0,73,0.00,,OVC OVC///CB,0.01,WUHU216DAVISVP2,2013-02-01 02:04:00,
2013-01-31 21:09:00,22.8,15.3,29.88,WNW,286,8.0,18.0,72,0.00,,OVC OVC///CB,0.01,WUHU216DAVISVP2,2013-02-01 02:09:00,
2013-01-31 21:14:00,22.8,15.3,29.88,West,260,3.0,18.0,72,0.00,,OVC OVC///CB,0.01,WUHU216DAVISVP2,2013-02-01 02:14:00,
2013-01-31 21:19:00,22.6,15.7,29.88,WNW,288,8.0,17.0,74,0.00,,OVC OVC///CB,0.01,WUHU216DAVISVP2,2013-02-01 02:19:00,
2013-01-31 21:24:00,22.1,16.4,29.88,WNW,285,7.0,16.0,78,0.00,,OVC OVC///CB,0.01,WUHU216DAVISVP2,2013-02-01 02:24:00,
2013-01-31 21:29:00,21.7,17.2,29.89,WNW,285,7.0,17.0,82,0.00,,OVC OVC///CB,0.01,WUHU216DAVISVP2,2013-02-01 02:29:00,
2013-01-31 21:35:00,21.3,17.3,29.89,West,266,3.0,17.0,84,0.00,,OVC OVC///CB,0.01,WUHU216DAVISVP2,2013-02-01 02:35:00,
2013-01-31 21:39:00,20.9,17.2,29.89,NW,319,4.0,17.0,85,0.00,,OVC OVC///CB,0.01,WUHU216DAVISVP2,2013-02-01 02:39:00,
2013-01-31 21:45:00,20.7,17.0,29.90,WNW,302,5.0,13.0,85,0.00,,OVC OVC///CB,0.01,WUHU216DAVISVP2,2013-02-01 02:45:00,
2013-01-31 21:50:00,20.4,16.4,29.90,West,280,5.0,13.0,84,0.00,,OVC OVC///CB,0.01,WUHU216DAVISVP2,2013-02-01 02:50:00,
2013-01-31 21:55:00,20.2,16.2,29.90,West,263,3.0,15.0,84,0.00,,OVC OVC///CB,0.01,WUHU216DAVISVP2,2013-02-01 02:55:00,
2013-01-31 22:00:00,20.1,16.1,29.90,West,280,4.0,15.0,84,0.00,,OVC OVC///CB,0.01,WUHU216DAVISVP2,2013-02-01 03:00:00,
2013-01-31 22:05:00,20.0,15.8,29.90,NW,312,2.0,15.0,83,0.00,,OVC OVC///CB,0.01,WUHU216DAVISVP2,2013-02-01 03:05:00,
2013-01-31 22:10:00,19.8,15.6,29.90,West,278,3.0,15.0,83,0.00,,OVC OVC///CB,0.01,WUHU216DAVISVP2,2013-02-01 03:10:00,
2013-01-31 22:15:00,19.7,15.5,29.91,WNW,295,4.0,13.0,83,0.00,,OVC OVC///CB,0.01,WUHU216DAVISVP2,2013-02-01 03:15:00,
2013-01-31 22:20:00,19.5,15.0,29.91,West,278,8.0,13.0,82,0.00,,OVC OVC///CB,0.01,WUHU216DAVISVP2,2013-02-01 03:20:00,
2013-01-31 22:25:00,19.4,14.9,29.91,WNW,283,0.0,11.0,82,0.00,,OVC OVC///CB,0.01,WUHU216DAVISVP2,2013-02-01 03:25:00,
2013-01-31 22:31:00,19.4,14.3,29.91,West,266,4.0,12.0,80,0.00,,OVC OVC///CB,0.01,WUHU216DAVISVP2,2013-02-01 03:31:00,
2013-01-31 22:36:00,19.4,14.1,29.91,WNW,298,11.0,14.0,79,0.00,,OVC OVC///CB,0.01,WUHU216DAVISVP2,2013-02-01 03:36:00,
2013-01-31 22:41:00,19.3,14.0,29.91,WNW,293,5.0,17.0,79,0.00,,OVC OVC///CB,0.01,WUHU216DAVISVP2,2013-02-01 03:41:00,
2013-01-31 22:46:00,19.3,14.0,29.91,WNW,291,4.0,17.0,79,0.00,,OVC OVC///CB,0.01,WUHU216DAVISVP2,2013-02-01 03:46:00,
2013-01-31 22:51:00,19.3,13.7,29.91,West,270,5.0,19.0,78,0.00,,OVC OVC///CB,0.01,WUHU216DAVISVP2,2013-02-01 03:51:00,
2013-01-31 22:56:00,19.3,13.4,29.91,West,276,5.0,19.0,77,0.00,,OVC OVC///CB,0.01,WUHU216DAVISVP2,2013-02-01 03:56:00,
2013-01-31 23:02:00,19.2,13.3,29.91,WNW,291,11.0,17.0,77,0.00,,OVC OVC///CB,0.01,WUHU216DAVISVP2,2013-02-01 04:02:00,
2013-01-31 23:07:00,19.2,13.3,29.91,West,278,4.0,17.0,77,0.00,,OVC OVC///CB,0.01,WUHU216DAVISVP2,2013-02-01 04:07:00,
2013-01-31 23:12:00,19.1,13.2,29.91,West,266,1.0,17.0,77,0.00,,OVC OVC///CB,0.01,WUHU216DAVISVP2,2013-02-01 04:12:00,
2013-01-31 23:17:00,18.9,13.0,29.91,NW,305,4.0,17.0,77,0.00,,OVC OVC///CB,0.01,WUHU216DAVISVP2,2013-02-01 04:17:00,
2013-01-31 23:22:00,18.8,12.9,29.90,West,273,6.0,16.0,77,0.00,,OVC OVC///CB,0.01,WUHU216DAVISVP2,2013-02-01 04:22:00,
2013-01-31 23:27:00,18.7,12.8,29.90,WNW,301,3.0,16.0,77,0.00,,OVC OVC///CB,0.01,WUHU216DAVISVP2,2013-02-01 04:27:00,
2013-01-31 23:32:00,18.7,13.1,29.90,NW,316,2.0,16.0,78,0.00,,OVC OVC///CB,0.01,WUHU216DAVISVP2,2013-02-01 04:32:00,
2013-01-31 23:37:00,18.5,13.5,29.90,WNW,295,5.0,15.0,80,0.00,,OVC OVC///CB,0.01,WUHU216DAVISVP2,2013-02-01 04:37:00,
2013-01-31 23:42:00,18.2,13.7,29.90,WNW,298,3.0,11.0,82,0.00,,OVC OVC///CB,0.01,WUHU216DAVISVP2,2013-02-01 04:42:00,
2013-01-31 23:47:00,17.9,13.7,29.90,WNW,291,2.0,11.0,83,0.00,,OVC OVC///CB,0.01,WUHU216DAVISVP2,2013-02-01 04:47:00,
2013-01-31 23:52:00,17.8,13.6,29.90,NW,304,4.0,11.0,83,0.00,,OVC OVC///CB,0.01,WUHU216DAVISVP2,2013-02-01 04:52:00,
2013-01-31 23:57:00,17.8,13.6,29.91,West,259,4.0,11.0,83,0.00,,OVC OVC///CB,0.01,WUHU216DAVISVP2,2013-02-01 04:57:00,